TimeEDT,TemperatureF,Dew PointF,Humidity,Sea Level PressureIn,VisibilityMPH,Wind Direction,Wind SpeedMPH,Gust SpeedMPH,PrecipitationIn,Events,Conditions,WindDirDegrees,DateUTC
12:15 AM,77.0,77.0,100,30.04,5.0,Calm,Calm,-,N/A,,Clear,0,2013-09-12 04:15:00
12:35 AM,77.0,77.0,100,30.04,7.0,Calm,Calm,-,N/A,,Clear,0,2013-09-12 04:35:00
12:55 AM,78.8,78.8,100,30.03,7.0,South,3.5,-,N/A,,Clear,170,2013-09-12 04:55:00
1:15 AM,78.8,78.8,100,30.03,7.0,South,5.8,-,N/A,,Clear,170,2013-09-12 05:15:00
1:35 AM,78.8,78.8,100,30.02,7.0,SSE,4.6,-,N/A,,Clear,160,2013-09-12 05:35:00
1:55 AM,77.0,77.0,100,30.02,7.0,Calm,Calm,-,N/A,,Clear,0,2013-09-12 05:55:00
2:15 AM,77.0,77.0,100,30.01,7.0,Calm,Calm,-,N/A,,Clear,0,2013-09-12 06:15:00
2:35 AM,77.0,77.0,100,30.01,7.0,Calm,Calm,-,N/A,,Clear,0,2013-09-12 06:35:00
2:55 AM,77.0,77.0,100,30.01,5.0,Calm,Calm,-,N/A,,Clear,0,2013-09-12 06:55:00
3:15 AM,77.0,77.0,100,30.00,4.0,Calm,Calm,-,N/A,,Clear,0,2013-09-12 07:15:00
3:35 AM,75.2,75.2,100,30.00,4.0,Calm,Calm,-,N/A,,Clear,0,2013-09-12 07:35:00
3:55 AM,77.0,77.0,100,30.00,4.0,Calm,Calm,-,N/A,,Clear,0,2013-09-12 07:55:00
4:15 AM,75.2,75.2,100,29.99,3.0,Calm,Calm,-,N/A,,Clear,0,2013-09-12 08:15:00
4:35 AM,73.4,73.4,100,29.99,4.0,Calm,Calm,-,N/A,,Clear,0,2013-09-12 08:35:00
4:55 AM,73.4,73.4,100,29.99,2.0,Calm,Calm,-,N/A,,Clear,0,2013-09-12 08:55:00
5:15 AM,73.4,73.4,100,29.99,1.5,Calm,Calm,-,N/A,,Mist,0,2013-09-12 09:15:00
5:35 AM,73.4,73.4,100,29.99,3.0,Calm,Calm,-,N/A,,Mist,0,2013-09-12 09:35:00
5:55 AM,73.4,73.4,100,29.99,1.0,Calm,Calm,-,N/A,,Mist,0,2013-09-12 09:55:00
6:15 AM,73.4,73.4,100,29.99,4.0,Calm,Calm,-,N/A,,Clear,0,2013-09-12 10:15:00
6:35 AM,73.4,73.4,100,29.99,4.0,Calm,Calm,-,N/A,,Clear,0,2013-09-12 10:35:00
6:55 AM,73.4,73.4,100,30.00,2.0,Calm,Calm,-,N/A,,Clear,0,2013-09-12 10:55:00
7:15 AM,73.4,73.4,100,30.00,3.0,Calm,Calm,-,N/A,,Clear,0,2013-09-12 11:15:00
7:35 AM,73.4,73.4,100,30.00,2.5,Calm,Calm,-,N/A,,Clear,0,2013-09-12 11:35:00
7:55 AM,75.2,75.2,100,29.99,2.5,Calm,Calm,-,N/A,,Clear,0,2013-09-12 11:55:00
8:15 AM,77.0,77.0,100,29.99,3.0,Calm,Calm,-,N/A,,Clear,0,2013-09-12 12:15:00
8:35 AM,78.8,78.8,100,29.98,5.0,SSW,3.5,-,N/A,,Clear,210,2013-09-12 12:35:00
8:55 AM,78.8,78.8,100,29.98,7.0,South,3.5,-,N/A,,Clear,180,2013-09-12 12:55:00
9:15 AM,80.6,78.8,94,29.98,7.0,Calm,Calm,-,N/A,,Clear,0,2013-09-12 13:15:00
9:35 AM,82.4,80.6,94,29.97,10.0,South,3.5,-,N/A,,Clear,190,2013-09-12 13:35:00
9:55 AM,86.0,80.6,84,29.96,10.0,Calm,Calm,-,N/A,,Clear,0,2013-09-12 13:55:00
10:15 AM,87.8,80.6,79,29.96,10.0,Calm,Calm,-,N/A,,Clear,0,2013-09-12 14:15:00
10:35 AM,89.6,80.6,75,29.96,10.0,Calm,Calm,-,N/A,,Clear,0,2013-09-12 14:35:00
10:55 AM,91.4,80.6,71,29.95,10.0,East,3.5,-,N/A,,Clear,100,2013-09-12 14:55:00
11:15 AM,91.4,80.6,71,29.94,10.0,Calm,Calm,-,N/A,,Clear,0,2013-09-12 15:15:00
11:35 AM,93.2,80.6,67,29.94,10.0,East,3.5,-,N/A,,Clear,90,2013-09-12 15:35:00
11:55 AM,93.2,78.8,63,29.93,10.0,ESE,3.5,-,N/A,,Clear,120,2013-09-12 15:55:00
12:15 PM,93.2,80.6,67,29.93,10.0,ESE,3.5,-,N/A,,Scattered Clouds,120,2013-09-12 16:15:00
12:35 PM,95.0,80.6,63,29.93,10.0,SSE,4.6,-,N/A,,Scattered Clouds,160,2013-09-12 16:35:00
12:55 PM,93.2,78.8,63,29.92,10.0,SSE,3.5,-,N/A,,Mostly Cloudy,150,2013-09-12 16:55:00
1:15 PM,93.2,78.8,63,29.91,10.0,Calm,Calm,-,N/A,,Scattered Clouds,0,2013-09-12 17:15:00
1:35 PM,95.0,80.6,63,29.91,10.0,SSE,8.1,-,N/A,,Scattered Clouds,160,2013-09-12 17:35:00
1:55 PM,95.0,80.6,63,29.89,10.0,SE,5.8,-,N/A,,Scattered Clouds,130,2013-09-12 17:55:00
2:15 PM,95.0,80.6,63,29.88,10.0,SE,9.2,-,N/A,,Scattered Clouds,140,2013-09-12 18:15:00
2:35 PM,95.0,80.6,63,29.86,10.0,SE,9.2,-,N/A,,Scattered Clouds,130,2013-09-12 18:35:00
2:55 PM,96.8,80.6,60,29.85,10.0,SSE,9.2,-,N/A,,Scattered Clouds,150,2013-09-12 18:55:00
3:15 PM,95.0,78.8,59,29.84,10.0,South,8.1,-,N/A,Thunderstorm,Clear,190,2013-09-12 19:15:00
3:35 PM,91.4,78.8,66,29.84,10.0,SW,17.3,25.3,N/A,Thunderstorm,Thunderstorm,220,2013-09-12 19:35:00
3:55 PM,77.0,71.6,83,29.85,1.0,ESE,8.1,40.3,0.28,Rain-Thunderstorm,Thunderstorms and Rain,120,2013-09-12 19:55:00
4:15 PM,77.0,77.0,100,29.82,10.0,Calm,Calm,-,N/A,Thunderstorm,Scattered Clouds,0,2013-09-12 20:15:00
4:35 PM,78.8,78.8,100,29.81,10.0,Calm,Calm,-,N/A,Thunderstorm,Clear,0,2013-09-12 20:35:00
4:55 PM,80.6,77.0,89,29.84,10.0,WNW,17.3,20.7,N/A,Thunderstorm,Thunderstorm,290,2013-09-12 20:55:00
5:15 PM,80.6,73.4,79,29.87,10.0,West,16.1,33.4,N/A,Thunderstorm,Thunderstorm,270,2013-09-12 21:15:00
5:35 PM,77.0,73.4,89,29.83,2.0,NW,4.6,23.0,0.25,Rain-Thunderstorm,Heavy Thunderstorms and Rain,320,2013-09-12 21:35:00
5:55 PM,73.4,73.4,100,29.83,3.0,Calm,Calm,-,0.31,Rain-Thunderstorm,Heavy Thunderstorms and Rain,0,2013-09-12 21:55:00
6:15 PM,75.2,75.2,100,29.84,5.0,SSW,12.7,17.3,0.02,Rain-Thunderstorm,Light Thunderstorms and Rain,200,2013-09-12 22:15:00
6:35 PM,75.2,73.4,94,29.81,3.0,SE,13.8,25.3,0.08,Rain-Thunderstorm,Heavy Thunderstorms and Rain,130,2013-09-12 22:35:00
6:55 PM,75.2,75.2,100,29.80,10.0,Calm,Calm,-,0.09,Rain,Light Rain,0,2013-09-12 22:55:00
7:15 PM,73.4,73.4,100,29.81,7.0,SSW,5.8,-,N/A,,Scattered Clouds,200,2013-09-12 23:15:00
7:35 PM,73.4,73.4,100,29.80,10.0,Calm,Calm,-,N/A,,Clear,0,2013-09-12 23:35:00
7:55 PM,73.4,73.4,100,29.80,7.0,Calm,Calm,-,N/A,,Clear,0,2013-09-12 23:55:00
8:15 PM,73.4,73.4,100,29.81,7.0,Calm,Calm,-,N/A,,Clear,0,2013-09-13 00:15:00
8:35 PM,73.4,73.4,100,29.81,7.0,Calm,Calm,-,N/A,,Mostly Cloudy,0,2013-09-13 00:35:00
8:55 PM,73.4,73.4,100,29.81,7.0,Calm,Calm,-,N/A,,Scattered Clouds,0,2013-09-13 00:55:00
9:15 PM,73.4,73.4,100,29.81,10.0,Calm,Calm,-,N/A,,Mostly Cloudy,0,2013-09-13 01:15:00
9:35 PM,73.4,73.4,100,29.81,10.0,Calm,Calm,-,N/A,,Mostly Cloudy,0,2013-09-13 01:35:00
9:55 PM,75.2,75.2,100,29.81,10.0,Calm,Calm,-,N/A,,Scattered Clouds,0,2013-09-13 01:55:00
10:15 PM,77.0,77.0,100,29.80,7.0,Calm,Calm,-,N/A,,Mostly Cloudy,0,2013-09-13 02:15:00
10:35 PM,75.2,75.2,100,29.80,5.0,Calm,Calm,-,N/A,,Mostly Cloudy,0,2013-09-13 02:35:00
10:55 PM,75.2,75.2,100,29.80,7.0,South,3.5,-,N/A,,Mostly Cloudy,180,2013-09-13 02:55:00
11:15 PM,75.2,75.2,100,29.80,3.0,Calm,Calm,-,N/A,,Overcast,0,2013-09-13 03:15:00
11:35 PM,75.2,75.2,100,29.80,4.0,Calm,Calm,-,N/A,,Overcast,0,2013-09-13 03:35:00
11:55 PM,75.2,75.2,100,29.80,4.0,ESE,3.5,-,N/A,,Overcast,120,2013-09-13 03:55:00